sensor_id;sensor_type;location;lat;lon;timestamp;P1;durP1;ratioP1;P2;durP2;ratioP2
69956;SDS011;57283;54.816;9.482;2023-01-23T00:01:48;4.03;;;1.33;;
69956;SDS011;57283;54.816;9.482;2023-01-23T00:04:16;5.47;;;1.48;;
69956;SDS011;57283;54.816;9.482;2023-01-23T00:06:44;4.72;;;1.27;;
69956;SDS011;57283;54.816;9.482;2023-01-23T00:09:12;5.40;;;1.70;;
69956;SDS011;57283;54.816;9.482;2023-01-23T00:11:40;4.07;;;1.38;;
69956;SDS011;57283;54.816;9.482;2023-01-23T00:14:08;4.28;;;1.33;;
69956;SDS011;57283;54.816;9.482;2023-01-23T00:16:37;5.50;;;2.00;;
69956;SDS011;57283;54.816;9.482;2023-01-23T00:19:04;4.68;;;1.35;;
69956;SDS011;57283;54.816;9.482;2023-01-23T00:21:32;5.30;;;1.50;;
69956;SDS011;57283;54.816;9.482;2023-01-23T00:24:00;4.57;;;1.55;;
69956;SDS011;57283;54.816;9.482;2023-01-23T00:26:28;5.28;;;1.58;;
69956;SDS011;57283;54.816;9.482;2023-01-23T00:28:59;5.38;;;1.60;;
69956;SDS011;57283;54.816;9.482;2023-01-23T00:31:27;4.85;;;1.58;;
69956;SDS011;57283;54.816;9.482;2023-01-23T00:33:57;3.87;;;1.40;;
69956;SDS011;57283;54.816;9.482;2023-01-23T00:36:26;3.85;;;1.48;;
69956;SDS011;57283;54.816;9.482;2023-01-23T00:38:54;5.72;;;1.77;;
69956;SDS011;57283;54.816;9.482;2023-01-23T00:41:22;5.45;;;1.80;;
69956;SDS011;57283;54.816;9.482;2023-01-23T00:43:50;4.45;;;1.67;;
69956;SDS011;57283;54.816;9.482;2023-01-23T00:46:44;7.27;;;1.63;;
69956;SDS011;57283;54.816;9.482;2023-01-23T00:49:11;5.10;;;1.80;;
69956;SDS011;57283;54.816;9.482;2023-01-23T00:51:40;5.70;;;1.48;;
69956;SDS011;57283;54.816;9.482;2023-01-23T00:57:29;9.18;;;1.40;;
69956;SDS011;57283;54.816;9.482;2023-01-23T00:59:56;4.37;;;1.40;;
69956;SDS011;57283;54.816;9.482;2023-01-23T01:02:25;5.25;;;1.40;;
69956;SDS011;57283;54.816;9.482;2023-01-23T01:04:53;6.20;;;1.60;;
69956;SDS011;57283;54.816;9.482;2023-01-23T01:07:21;4.25;;;1.42;;
69956;SDS011;57283;54.816;9.482;2023-01-23T01:09:48;6.22;;;1.92;;
69956;SDS011;57283;54.816;9.482;2023-01-23T01:12:16;4.10;;;1.50;;
69956;SDS011;57283;54.816;9.482;2023-01-23T01:14:44;6.38;;;1.83;;
69956;SDS011;57283;54.816;9.482;2023-01-23T01:17:12;4.38;;;1.30;;
69956;SDS011;57283;54.816;9.482;2023-01-23T01:19:41;5.15;;;1.42;;
69956;SDS011;57283;54.816;9.482;2023-01-23T01:22:08;4.20;;;1.60;;
69956;SDS011;57283;54.816;9.482;2023-01-23T01:24:36;4.73;;;1.40;;
69956;SDS011;57283;54.816;9.482;2023-01-23T01:27:03;5.05;;;1.45;;
69956;SDS011;57283;54.816;9.482;2023-01-23T01:29:31;5.18;;;1.30;;
69956;SDS011;57283;54.816;9.482;2023-01-23T01:31:59;4.68;;;1.70;;
69956;SDS011;57283;54.816;9.482;2023-01-23T01:37:50;3.43;;;1.43;;
69956;SDS011;57283;54.816;9.482;2023-01-23T01:40:18;4.28;;;1.40;;
69956;SDS011;57283;54.816;9.482;2023-01-23T01:42:47;5.22;;;1.85;;
69956;SDS011;57283;54.816;9.482;2023-01-23T01:48:02;6.20;;;2.05;;
69956;SDS011;57283;54.816;9.482;2023-01-23T01:50:29;5.30;;;1.80;;
69956;SDS011;57283;54.816;9.482;2023-01-23T01:52:58;5.55;;;1.98;;
69956;SDS011;57283;54.816;9.482;2023-01-23T01:55:26;4.88;;;1.80;;
69956;SDS011;57283;54.816;9.482;2023-01-23T01:57:53;5.30;;;1.70;;
69956;SDS011;57283;54.816;9.482;2023-01-23T02:00:21;5.97;;;2.15;;
69956;SDS011;57283;54.816;9.482;2023-01-23T02:02:49;4.23;;;1.50;;
69956;SDS011;57283;54.816;9.482;2023-01-23T02:05:19;4.43;;;1.58;;
69956;SDS011;57283;54.816;9.482;2023-01-23T02:07:48;6.43;;;1.95;;
69956;SDS011;57283;54.816;9.482;2023-01-23T02:10:21;6.85;;;1.70;;
69956;SDS011;57283;54.816;9.482;2023-01-23T02:12:49;5.57;;;2.05;;
69956;SDS011;57283;54.816;9.482;2023-01-23T02:15:18;6.97;;;1.70;;
69956;SDS011;57283;54.816;9.482;2023-01-23T02:17:47;4.72;;;1.50;;
69956;SDS011;57283;54.816;9.482;2023-01-23T02:20:16;3.95;;;1.23;;
69956;SDS011;57283;54.816;9.482;2023-01-23T02:22:46;5.82;;;2.33;;
69956;SDS011;57283;54.816;9.482;2023-01-23T02:25:20;5.40;;;1.90;;
69956;SDS011;57283;54.816;9.482;2023-01-23T02:27:50;7.53;;;2.30;;
69956;SDS011;57283;54.816;9.482;2023-01-23T02:30:18;4.13;;;1.20;;
69956;SDS011;57283;54.816;9.482;2023-01-23T02:32:46;7.43;;;1.65;;
69956;SDS011;57283;54.816;9.482;2023-01-23T02:35:14;5.13;;;1.95;;
69956;SDS011;57283;54.816;9.482;2023-01-23T02:37:44;8.02;;;1.70;;
69956;SDS011;57283;54.816;9.482;2023-01-23T02:40:13;7.47;;;1.83;;
69956;SDS011;57283;54.816;9.482;2023-01-23T02:42:42;4.25;;;1.60;;
69956;SDS011;57283;54.816;9.482;2023-01-23T02:45:12;4.70;;;1.70;;
69956;SDS011;57283;54.816;9.482;2023-01-23T02:47:40;5.35;;;1.98;;
69956;SDS011;57283;54.816;9.482;2023-01-23T02:50:08;5.50;;;2.00;;
69956;SDS011;57283;54.816;9.482;2023-01-23T02:52:35;5.00;;;1.47;;
69956;SDS011;57283;54.816;9.482;2023-01-23T02:55:03;6.25;;;2.15;;
69956;SDS011;57283;54.816;9.482;2023-01-23T02:57:31;6.68;;;1.85;;
69956;SDS011;57283;54.816;9.482;2023-01-23T03:00:00;6.20;;;2.17;;
69956;SDS011;57283;54.816;9.482;2023-01-23T03:02:42;6.07;;;1.45;;
69956;SDS011;57283;54.816;9.482;2023-01-23T03:05:10;5.97;;;1.87;;
69956;SDS011;57283;54.816;9.482;2023-01-23T03:07:38;5.63;;;1.75;;
69956;SDS011;57283;54.816;9.482;2023-01-23T03:10:06;6.28;;;2.40;;
69956;SDS011;57283;54.816;9.482;2023-01-23T03:12:34;5.50;;;2.10;;
69956;SDS011;57283;54.816;9.482;2023-01-23T03:15:03;5.13;;;2.00;;
69956;SDS011;57283;54.816;9.482;2023-01-23T03:17:31;6.47;;;1.73;;
69956;SDS011;57283;54.816;9.482;2023-01-23T03:20:00;6.25;;;1.83;;
69956;SDS011;57283;54.816;9.482;2023-01-23T03:22:29;4.15;;;1.73;;
69956;SDS011;57283;54.816;9.482;2023-01-23T03:24:57;5.13;;;2.03;;
69956;SDS011;57283;54.816;9.482;2023-01-23T03:27:24;4.53;;;1.48;;
69956;SDS011;57283;54.816;9.482;2023-01-23T03:29:52;5.67;;;2.00;;
69956;SDS011;57283;54.816;9.482;2023-01-23T03:32:37;4.85;;;1.70;;
69956;SDS011;57283;54.816;9.482;2023-01-23T03:35:07;6.20;;;1.95;;
69956;SDS011;57283;54.816;9.482;2023-01-23T03:37:39;4.20;;;1.80;;
69956;SDS011;57283;54.816;9.482;2023-01-23T03:40:08;5.22;;;1.83;;
69956;SDS011;57283;54.816;9.482;2023-01-23T03:42:52;5.93;;;1.90;;
69956;SDS011;57283;54.816;9.482;2023-01-23T03:45:20;5.88;;;2.00;;
69956;SDS011;57283;54.816;9.482;2023-01-23T03:47:47;6.80;;;2.60;;
69956;SDS011;57283;54.816;9.482;2023-01-23T03:50:16;4.30;;;1.30;;
69956;SDS011;57283;54.816;9.482;2023-01-23T03:52:44;5.95;;;2.22;;
69956;SDS011;57283;54.816;9.482;2023-01-23T03:55:12;4.97;;;1.90;;
69956;SDS011;57283;54.816;9.482;2023-01-23T03:57:39;4.68;;;1.85;;
69956;SDS011;57283;54.816;9.482;2023-01-23T04:00:07;5.65;;;2.28;;
69956;SDS011;57283;54.816;9.482;2023-01-23T04:02:35;4.70;;;1.88;;
69956;SDS011;57283;54.816;9.482;2023-01-23T04:05:03;6.82;;;1.80;;
69956;SDS011;57283;54.816;9.482;2023-01-23T04:07:32;4.83;;;2.00;;
69956;SDS011;57283;54.816;9.482;2023-01-23T04:09:59;6.82;;;2.03;;
69956;SDS011;57283;54.816;9.482;2023-01-23T04:12:27;5.47;;;2.30;;
69956;SDS011;57283;54.816;9.482;2023-01-23T04:14:54;5.53;;;2.03;;
69956;SDS011;57283;54.816;9.482;2023-01-23T04:17:22;5.57;;;1.98;;
69956;SDS011;57283;54.816;9.482;2023-01-23T04:19:50;6.33;;;2.20;;
69956;SDS011;57283;54.816;9.482;2023-01-23T04:22:17;6.32;;;2.10;;
69956;SDS011;57283;54.816;9.482;2023-01-23T04:24:46;6.22;;;2.13;;
69956;SDS011;57283;54.816;9.482;2023-01-23T04:27:14;5.68;;;2.05;;
69956;SDS011;57283;54.816;9.482;2023-01-23T04:29:41;4.30;;;1.52;;
69956;SDS011;57283;54.816;9.482;2023-01-23T04:32:09;4.73;;;1.83;;
69956;SDS011;57283;54.816;9.482;2023-01-23T04:34:36;5.65;;;2.08;;
69956;SDS011;57283;54.816;9.482;2023-01-23T04:37:04;7.03;;;1.58;;
69956;SDS011;57283;54.816;9.482;2023-01-23T04:39:32;6.90;;;2.00;;
69956;SDS011;57283;54.816;9.482;2023-01-23T04:42:01;5.28;;;2.15;;
69956;SDS011;57283;54.816;9.482;2023-01-23T04:44:28;5.77;;;1.97;;
69956;SDS011;57283;54.816;9.482;2023-01-23T04:46:56;6.57;;;2.03;;
69956;SDS011;57283;54.816;9.482;2023-01-23T04:49:25;5.50;;;2.00;;
69956;SDS011;57283;54.816;9.482;2023-01-23T04:51:53;5.55;;;1.98;;
69956;SDS011;57283;54.816;9.482;2023-01-23T04:54:20;7.72;;;1.70;;
69956;SDS011;57283;54.816;9.482;2023-01-23T04:56:48;5.53;;;2.00;;
69956;SDS011;57283;54.816;9.482;2023-01-23T04:59:17;5.70;;;2.15;;
69956;SDS011;57283;54.816;9.482;2023-01-23T05:01:45;5.20;;;1.95;;
69956;SDS011;57283;54.816;9.482;2023-01-23T05:04:13;5.65;;;2.05;;
69956;SDS011;57283;54.816;9.482;2023-01-23T05:06:41;7.45;;;2.33;;
69956;SDS011;57283;54.816;9.482;2023-01-23T05:09:08;7.57;;;2.30;;
69956;SDS011;57283;54.816;9.482;2023-01-23T05:11:36;6.72;;;2.03;;
69956;SDS011;57283;54.816;9.482;2023-01-23T05:14:04;6.78;;;2.47;;
69956;SDS011;57283;54.816;9.482;2023-01-23T05:16:33;7.20;;;2.55;;
69956;SDS011;57283;54.816;9.482;2023-01-23T05:19:01;5.00;;;2.10;;
69956;SDS011;57283;54.816;9.482;2023-01-23T05:21:28;6.10;;;2.10;;
69956;SDS011;57283;54.816;9.482;2023-01-23T05:23:56;4.93;;;1.90;;
69956;SDS011;57283;54.816;9.482;2023-01-23T05:26:24;5.22;;;1.98;;
69956;SDS011;57283;54.816;9.482;2023-01-23T05:28:51;6.20;;;2.22;;
69956;SDS011;57283;54.816;9.482;2023-01-23T05:31:19;5.53;;;1.95;;
69956;SDS011;57283;54.816;9.482;2023-01-23T05:33:48;7.07;;;2.00;;
69956;SDS011;57283;54.816;9.482;2023-01-23T05:36:15;7.75;;;2.42;;
69956;SDS011;57283;54.816;9.482;2023-01-23T05:38:44;6.13;;;2.40;;
69956;SDS011;57283;54.816;9.482;2023-01-23T05:41:11;5.25;;;2.10;;
69956;SDS011;57283;54.816;9.482;2023-01-23T05:43:39;5.35;;;2.25;;
69956;SDS011;57283;54.816;9.482;2023-01-23T05:46:07;7.07;;;2.17;;
69956;SDS011;57283;54.816;9.482;2023-01-23T05:48:34;5.15;;;2.08;;
69956;SDS011;57283;54.816;9.482;2023-01-23T05:51:03;6.10;;;1.80;;
69956;SDS011;57283;54.816;9.482;2023-01-23T05:53:31;6.57;;;2.17;;
69956;SDS011;57283;54.816;9.482;2023-01-23T05:56:03;7.32;;;2.10;;
69956;SDS011;57283;54.816;9.482;2023-01-23T05:58:31;5.77;;;2.40;;
69956;SDS011;57283;54.816;9.482;2023-01-23T06:00:58;5.13;;;2.30;;
69956;SDS011;57283;54.816;9.482;2023-01-23T06:03:27;6.43;;;2.20;;
69956;SDS011;57283;54.816;9.482;2023-01-23T06:05:55;5.07;;;2.00;;
69956;SDS011;57283;54.816;9.482;2023-01-23T06:08:24;4.97;;;2.05;;
69956;SDS011;57283;54.816;9.482;2023-01-23T06:10:52;9.13;;;1.73;;
69956;SDS011;57283;54.816;9.482;2023-01-23T06:13:19;4.68;;;1.88;;
69956;SDS011;57283;54.816;9.482;2023-01-23T06:15:47;5.22;;;1.58;;
69956;SDS011;57283;54.816;9.482;2023-01-23T06:18:15;6.53;;;2.55;;
69956;SDS011;57283;54.816;9.482;2023-01-23T06:20:42;7.28;;;2.10;;
69956;SDS011;57283;54.816;9.482;2023-01-23T06:23:10;5.27;;;2.00;;
69956;SDS011;57283;54.816;9.482;2023-01-23T06:25:39;5.82;;;2.00;;
69956;SDS011;57283;54.816;9.482;2023-01-23T06:28:07;4.78;;;1.88;;
69956;SDS011;57283;54.816;9.482;2023-01-23T06:30:35;4.85;;;1.80;;
69956;SDS011;57283;54.816;9.482;2023-01-23T06:33:03;4.50;;;1.90;;
69956;SDS011;57283;54.816;9.482;2023-01-23T06:35:31;6.23;;;2.20;;
69956;SDS011;57283;54.816;9.482;2023-01-23T06:37:58;4.70;;;1.80;;
69956;SDS011;57283;54.816;9.482;2023-01-23T06:40:26;4.80;;;1.90;;
69956;SDS011;57283;54.816;9.482;2023-01-23T06:42:55;6.05;;;2.10;;
69956;SDS011;57283;54.816;9.482;2023-01-23T06:45:23;5.97;;;2.22;;
69956;SDS011;57283;54.816;9.482;2023-01-23T06:47:50;5.10;;;2.20;;
69956;SDS011;57283;54.816;9.482;2023-01-23T06:50:18;4.68;;;1.83;;
69956;SDS011;57283;54.816;9.482;2023-01-23T06:52:46;5.32;;;2.08;;
69956;SDS011;57283;54.816;9.482;2023-01-23T06:55:14;5.40;;;1.90;;
69956;SDS011;57283;54.816;9.482;2023-01-23T06:57:41;6.68;;;2.25;;
69956;SDS011;57283;54.816;9.482;2023-01-23T07:00:11;7.20;;;2.20;;
69956;SDS011;57283;54.816;9.482;2023-01-23T07:02:39;4.80;;;1.98;;
69956;SDS011;57283;54.816;9.482;2023-01-23T07:05:09;4.88;;;2.08;;
69956;SDS011;57283;54.816;9.482;2023-01-23T07:07:36;4.97;;;1.98;;
69956;SDS011;57283;54.816;9.482;2023-01-23T07:10:04;6.00;;;2.15;;
69956;SDS011;57283;54.816;9.482;2023-01-23T07:12:32;5.30;;;2.77;;
69956;SDS011;57283;54.816;9.482;2023-01-23T07:15:00;5.05;;;2.20;;
69956;SDS011;57283;54.816;9.482;2023-01-23T07:17:29;5.57;;;2.45;;
69956;SDS011;57283;54.816;9.482;2023-01-23T07:19:56;5.82;;;2.13;;
69956;SDS011;57283;54.816;9.482;2023-01-23T07:22:24;4.82;;;2.08;;
69956;SDS011;57283;54.816;9.482;2023-01-23T07:24:51;5.80;;;2.30;;
69956;SDS011;57283;54.816;9.482;2023-01-23T07:27:20;6.53;;;2.50;;
69956;SDS011;57283;54.816;9.482;2023-01-23T07:29:47;6.75;;;2.50;;
69956;SDS011;57283;54.816;9.482;2023-01-23T07:32:15;9.63;;;2.55;;
69956;SDS011;57283;54.816;9.482;2023-01-23T07:34:44;5.45;;;2.03;;
69956;SDS011;57283;54.816;9.482;2023-01-23T07:37:11;5.60;;;2.53;;
69956;SDS011;57283;54.816;9.482;2023-01-23T07:39:39;6.68;;;2.50;;
69956;SDS011;57283;54.816;9.482;2023-01-23T07:42:06;5.82;;;2.30;;
69956;SDS011;57283;54.816;9.482;2023-01-23T07:44:34;5.53;;;2.42;;
69956;SDS011;57283;54.816;9.482;2023-01-23T07:47:02;5.45;;;2.30;;
69956;SDS011;57283;54.816;9.482;2023-01-23T07:49:29;4.83;;;1.90;;
69956;SDS011;57283;54.816;9.482;2023-01-23T07:51:58;4.50;;;2.10;;
69956;SDS011;57283;54.816;9.482;2023-01-23T07:54:26;6.88;;;2.50;;
69956;SDS011;57283;54.816;9.482;2023-01-23T07:56:53;5.10;;;2.25;;
69956;SDS011;57283;54.816;9.482;2023-01-23T07:59:21;4.97;;;2.40;;
69956;SDS011;57283;54.816;9.482;2023-01-23T08:01:49;6.10;;;2.63;;
69956;SDS011;57283;54.816;9.482;2023-01-23T08:04:17;7.47;;;2.75;;
69956;SDS011;57283;54.816;9.482;2023-01-23T08:06:45;5.72;;;2.40;;
69956;SDS011;57283;54.816;9.482;2023-01-23T08:09:14;5.15;;;2.08;;
69956;SDS011;57283;54.816;9.482;2023-01-23T08:11:41;7.70;;;2.90;;
69956;SDS011;57283;54.816;9.482;2023-01-23T08:14:09;5.63;;;2.13;;
69956;SDS011;57283;54.816;9.482;2023-01-23T08:16:37;7.45;;;2.70;;
69956;SDS011;57283;54.816;9.482;2023-01-23T08:19:05;6.85;;;2.72;;
69956;SDS011;57283;54.816;9.482;2023-01-23T08:21:33;5.32;;;2.10;;
69956;SDS011;57283;54.816;9.482;2023-01-23T08:24:01;5.25;;;2.40;;
69956;SDS011;57283;54.816;9.482;2023-01-23T08:26:31;6.03;;;2.57;;
69956;SDS011;57283;54.816;9.482;2023-01-23T08:28:59;7.22;;;2.38;;
69956;SDS011;57283;54.816;9.482;2023-01-23T08:31:27;7.50;;;2.88;;
69956;SDS011;57283;54.816;9.482;2023-01-23T08:33:55;6.57;;;2.40;;
69956;SDS011;57283;54.816;9.482;2023-01-23T08:36:23;6.88;;;2.70;;
69956;SDS011;57283;54.816;9.482;2023-01-23T08:38:50;9.10;;;2.57;;
69956;SDS011;57283;54.816;9.482;2023-01-23T08:41:18;8.70;;;2.67;;
69956;SDS011;57283;54.816;9.482;2023-01-23T08:43:47;8.77;;;2.58;;
69956;SDS011;57283;54.816;9.482;2023-01-23T08:46:14;7.50;;;2.90;;
69956;SDS011;57283;54.816;9.482;2023-01-23T08:48:42;8.57;;;2.85;;
69956;SDS011;57283;54.816;9.482;2023-01-23T08:51:11;6.50;;;2.00;;
69956;SDS011;57283;54.816;9.482;2023-01-23T08:53:39;6.80;;;2.25;;
69956;SDS011;57283;54.816;9.482;2023-01-23T08:56:07;5.82;;;2.40;;
69956;SDS011;57283;54.816;9.482;2023-01-23T08:58:35;6.18;;;2.42;;
69956;SDS011;57283;54.816;9.482;2023-01-23T09:01:04;7.32;;;2.42;;
69956;SDS011;57283;54.816;9.482;2023-01-23T09:03:31;5.70;;;2.33;;
69956;SDS011;57283;54.816;9.482;2023-01-23T09:05:59;5.35;;;1.90;;
69956;SDS011;57283;54.816;9.482;2023-01-23T09:08:27;7.10;;;2.50;;
69956;SDS011;57283;54.816;9.482;2023-01-23T09:10:58;7.80;;;2.50;;
69956;SDS011;57283;54.816;9.482;2023-01-23T09:13:25;6.45;;;2.60;;
69956;SDS011;57283;54.816;9.482;2023-01-23T09:15:53;8.93;;;2.60;;
69956;SDS011;57283;54.816;9.482;2023-01-23T09:18:22;6.20;;;2.38;;
69956;SDS011;57283;54.816;9.482;2023-01-23T09:20:50;8.32;;;3.03;;
69956;SDS011;57283;54.816;9.482;2023-01-23T09:23:18;8.40;;;2.60;;
69956;SDS011;57283;54.816;9.482;2023-01-23T09:25:45;5.88;;;2.22;;
69956;SDS011;57283;54.816;9.482;2023-01-23T09:28:13;8.27;;;2.47;;
69956;SDS011;57283;54.816;9.482;2023-01-23T09:30:41;5.57;;;2.05;;
69956;SDS011;57283;54.816;9.482;2023-01-23T09:33:09;5.57;;;2.13;;
69956;SDS011;57283;54.816;9.482;2023-01-23T09:35:38;5.50;;;2.40;;
69956;SDS011;57283;54.816;9.482;2023-01-23T09:38:05;6.30;;;2.38;;
69956;SDS011;57283;54.816;9.482;2023-01-23T09:40:34;6.37;;;2.40;;
69956;SDS011;57283;54.816;9.482;2023-01-23T09:43:03;5.38;;;1.67;;
69956;SDS011;57283;54.816;9.482;2023-01-23T09:45:31;6.60;;;2.30;;
69956;SDS011;57283;54.816;9.482;2023-01-23T09:48:03;5.95;;;2.38;;
69956;SDS011;57283;54.816;9.482;2023-01-23T09:50:35;6.20;;;2.65;;
69956;SDS011;57283;54.816;9.482;2023-01-23T09:53:07;7.30;;;2.43;;
69956;SDS011;57283;54.816;9.482;2023-01-23T09:55:38;5.97;;;2.22;;
69956;SDS011;57283;54.816;9.482;2023-01-23T09:58:10;5.97;;;2.35;;
69956;SDS011;57283;54.816;9.482;2023-01-23T10:00:41;7.20;;;2.35;;
69956;SDS011;57283;54.816;9.482;2023-01-23T10:03:10;6.20;;;2.17;;
69956;SDS011;57283;54.816;9.482;2023-01-23T10:05:40;5.87;;;1.80;;
69956;SDS011;57283;54.816;9.482;2023-01-23T10:08:14;5.95;;;2.20;;
69956;SDS011;57283;54.816;9.482;2023-01-23T10:10:52;6.55;;;2.08;;
69956;SDS011;57283;54.816;9.482;2023-01-23T10:13:21;5.82;;;2.10;;
69956;SDS011;57283;54.816;9.482;2023-01-23T10:15:56;6.93;;;2.40;;
69956;SDS011;57283;54.816;9.482;2023-01-23T10:18:25;6.87;;;2.27;;
69956;SDS011;57283;54.816;9.482;2023-01-23T10:21:00;6.55;;;2.03;;
69956;SDS011;57283;54.816;9.482;2023-01-23T10:23:43;5.50;;;2.45;;
69956;SDS011;57283;54.816;9.482;2023-01-23T10:26:13;7.43;;;2.60;;
69956;SDS011;57283;54.816;9.482;2023-01-23T10:28:41;6.97;;;2.85;;
69956;SDS011;57283;54.816;9.482;2023-01-23T10:31:11;5.50;;;2.30;;
69956;SDS011;57283;54.816;9.482;2023-01-23T10:33:44;5.05;;;2.33;;
69956;SDS011;57283;54.816;9.482;2023-01-23T10:36:16;5.03;;;2.35;;
69956;SDS011;57283;54.816;9.482;2023-01-23T10:38:53;5.38;;;2.33;;
69956;SDS011;57283;54.816;9.482;2023-01-23T10:41:23;5.05;;;1.95;;
69956;SDS011;57283;54.816;9.482;2023-01-23T10:43:52;8.70;;;2.70;;
69956;SDS011;57283;54.816;9.482;2023-01-23T10:46:22;6.65;;;2.22;;
69956;SDS011;57283;54.816;9.482;2023-01-23T10:48:53;6.57;;;2.22;;
69956;SDS011;57283;54.816;9.482;2023-01-23T10:51:28;6.97;;;2.53;;
69956;SDS011;57283;54.816;9.482;2023-01-23T10:54:01;5.53;;;1.90;;
69956;SDS011;57283;54.816;9.482;2023-01-23T10:56:32;6.20;;;2.30;;
69956;SDS011;57283;54.816;9.482;2023-01-23T10:59:00;5.45;;;2.40;;
69956;SDS011;57283;54.816;9.482;2023-01-23T11:01:29;6.18;;;2.53;;
69956;SDS011;57283;54.816;9.482;2023-01-23T11:04:01;6.75;;;2.45;;
69956;SDS011;57283;54.816;9.482;2023-01-23T11:06:35;7.28;;;2.38;;
69956;SDS011;57283;54.816;9.482;2023-01-23T11:09:07;6.20;;;2.40;;
69956;SDS011;57283;54.816;9.482;2023-01-23T11:11:45;8.00;;;2.40;;
69956;SDS011;57283;54.816;9.482;2023-01-23T11:14:25;6.35;;;2.60;;
69956;SDS011;57283;54.816;9.482;2023-01-23T11:16:59;6.65;;;2.50;;
69956;SDS011;57283;54.816;9.482;2023-01-23T11:19:28;6.07;;;2.75;;
69956;SDS011;57283;54.816;9.482;2023-01-23T11:21:57;6.83;;;2.70;;
69956;SDS011;57283;54.816;9.482;2023-01-23T11:24:31;5.38;;;2.38;;
69956;SDS011;57283;54.816;9.482;2023-01-23T11:27:14;8.07;;;2.88;;
69956;SDS011;57283;54.816;9.482;2023-01-23T11:29:48;6.13;;;2.42;;
69956;SDS011;57283;54.816;9.482;2023-01-23T11:32:16;5.03;;;2.05;;
69956;SDS011;57283;54.816;9.482;2023-01-23T11:34:46;6.73;;;2.53;;
69956;SDS011;57283;54.816;9.482;2023-01-23T11:37:16;5.43;;;2.10;;
69956;SDS011;57283;54.816;9.482;2023-01-23T11:39:48;5.30;;;1.85;;
69956;SDS011;57283;54.816;9.482;2023-01-23T11:42:17;5.30;;;1.90;;
69956;SDS011;57283;54.816;9.482;2023-01-23T11:44:45;4.97;;;2.05;;
69956;SDS011;57283;54.816;9.482;2023-01-23T11:47:23;4.30;;;1.57;;
69956;SDS011;57283;54.816;9.482;2023-01-23T11:52:42;4.88;;;1.70;;
69956;SDS011;57283;54.816;9.482;2023-01-23T11:55:21;4.05;;;1.60;;
69956;SDS011;57283;54.816;9.482;2023-01-23T11:57:54;4.05;;;1.50;;
69956;SDS011;57283;54.816;9.482;2023-01-23T12:00:27;4.57;;;1.70;;
69956;SDS011;57283;54.816;9.482;2023-01-23T12:03:16;5.97;;;2.30;;
69956;SDS011;57283;54.816;9.482;2023-01-23T12:05:50;5.45;;;1.63;;
69956;SDS011;57283;54.816;9.482;2023-01-23T12:08:36;6.95;;;2.00;;
69956;SDS011;57283;54.816;9.482;2023-01-23T12:11:10;6.07;;;2.08;;
69956;SDS011;57283;54.816;9.482;2023-01-23T12:13:42;6.73;;;2.27;;
69956;SDS011;57283;54.816;9.482;2023-01-23T12:16:15;5.32;;;1.73;;
69956;SDS011;57283;54.816;9.482;2023-01-23T12:18:48;5.68;;;2.08;;
69956;SDS011;57283;54.816;9.482;2023-01-23T12:21:18;5.15;;;1.90;;
69956;SDS011;57283;54.816;9.482;2023-01-23T12:23:50;4.97;;;1.77;;
69956;SDS011;57283;54.816;9.482;2023-01-23T12:26:22;4.90;;;2.03;;
69956;SDS011;57283;54.816;9.482;2023-01-23T12:31:39;4.82;;;1.85;;
69956;SDS011;57283;54.816;9.482;2023-01-23T12:34:16;5.32;;;1.98;;
69956;SDS011;57283;54.816;9.482;2023-01-23T12:36:55;4.93;;;1.77;;
69956;SDS011;57283;54.816;9.482;2023-01-23T12:39:44;5.23;;;1.60;;
69956;SDS011;57283;54.816;9.482;2023-01-23T12:42:17;4.38;;;1.60;;
69956;SDS011;57283;54.816;9.482;2023-01-23T12:44:52;4.82;;;2.00;;
69956;SDS011;57283;54.816;9.482;2023-01-23T12:47:23;5.45;;;1.90;;
69956;SDS011;57283;54.816;9.482;2023-01-23T12:49:53;6.00;;;2.50;;
69956;SDS011;57283;54.816;9.482;2023-01-23T12:52:23;8.03;;;2.53;;
69956;SDS011;57283;54.816;9.482;2023-01-23T12:54:53;5.78;;;2.10;;
69956;SDS011;57283;54.816;9.482;2023-01-23T12:57:24;5.72;;;1.88;;
69956;SDS011;57283;54.816;9.482;2023-01-23T13:00:42;5.28;;;2.05;;
69956;SDS011;57283;54.816;9.482;2023-01-23T13:03:16;5.13;;;2.80;;
69956;SDS011;57283;54.816;9.482;2023-01-23T13:05:51;4.83;;;1.93;;
69956;SDS011;57283;54.816;9.482;2023-01-23T13:08:23;5.47;;;1.85;;
69956;SDS011;57283;54.816;9.482;2023-01-23T13:11:00;6.18;;;1.95;;
69956;SDS011;57283;54.816;9.482;2023-01-23T13:13:47;4.93;;;2.10;;
69956;SDS011;57283;54.816;9.482;2023-01-23T13:16:15;4.93;;;2.00;;
69956;SDS011;57283;54.816;9.482;2023-01-23T13:18:52;4.33;;;1.63;;
69956;SDS011;57283;54.816;9.482;2023-01-23T13:21:38;4.43;;;1.58;;
69956;SDS011;57283;54.816;9.482;2023-01-23T13:24:37;4.20;;;1.63;;
69956;SDS011;57283;54.816;9.482;2023-01-23T13:27:34;5.07;;;1.90;;
69956;SDS011;57283;54.816;9.482;2023-01-23T13:30:13;5.22;;;1.90;;
69956;SDS011;57283;54.816;9.482;2023-01-23T13:32:58;5.43;;;2.43;;
69956;SDS011;57283;54.816;9.482;2023-01-23T13:38:27;5.28;;;2.20;;
69956;SDS011;57283;54.816;9.482;2023-01-23T13:43:50;5.88;;;2.15;;
69956;SDS011;57283;54.816;9.482;2023-01-23T13:46:22;4.40;;;1.80;;
69956;SDS011;57283;54.816;9.482;2023-01-23T13:48:55;5.90;;;2.00;;
69956;SDS011;57283;54.816;9.482;2023-01-23T13:51:56;5.63;;;1.83;;
69956;SDS011;57283;54.816;9.482;2023-01-23T13:54:39;4.82;;;1.83;;
69956;SDS011;57283;54.816;9.482;2023-01-23T13:57:38;4.72;;;1.98;;
69956;SDS011;57283;54.816;9.482;2023-01-23T14:00:21;4.53;;;1.67;;
69956;SDS011;57283;54.816;9.482;2023-01-23T14:03:13;5.43;;;1.70;;
69956;SDS011;57283;54.816;9.482;2023-01-23T14:08:44;6.30;;;2.27;;
69956;SDS011;57283;54.816;9.482;2023-01-23T14:17:37;6.95;;;2.40;;
69956;SDS011;57283;54.816;9.482;2023-01-23T14:20:21;6.20;;;1.98;;
69956;SDS011;57283;54.816;9.482;2023-01-23T14:22:52;5.40;;;2.15;;
69956;SDS011;57283;54.816;9.482;2023-01-23T14:25:20;6.00;;;2.30;;
69956;SDS011;57283;54.816;9.482;2023-01-23T14:27:48;5.00;;;2.00;;
69956;SDS011;57283;54.816;9.482;2023-01-23T14:30:27;4.45;;;1.83;;
69956;SDS011;57283;54.816;9.482;2023-01-23T14:32:56;4.75;;;1.90;;
69956;SDS011;57283;54.816;9.482;2023-01-23T14:35:27;5.18;;;2.33;;
69956;SDS011;57283;54.816;9.482;2023-01-23T14:37:56;4.53;;;2.10;;
69956;SDS011;57283;54.816;9.482;2023-01-23T14:40:24;6.22;;;2.90;;
69956;SDS011;57283;54.816;9.482;2023-01-23T14:43:01;6.18;;;2.20;;
69956;SDS011;57283;54.816;9.482;2023-01-23T14:45:30;8.00;;;2.60;;
69956;SDS011;57283;54.816;9.482;2023-01-23T14:47:59;5.43;;;2.40;;
69956;SDS011;57283;54.816;9.482;2023-01-23T14:50:33;7.07;;;2.85;;
69956;SDS011;57283;54.816;9.482;2023-01-23T14:53:01;7.47;;;3.10;;
69956;SDS011;57283;54.816;9.482;2023-01-23T14:55:30;7.75;;;2.83;;
69956;SDS011;57283;54.816;9.482;2023-01-23T14:57:58;9.32;;;3.00;;
69956;SDS011;57283;54.816;9.482;2023-01-23T15:00:26;7.25;;;2.70;;
69956;SDS011;57283;54.816;9.482;2023-01-23T15:02:54;7.72;;;3.92;;
69956;SDS011;57283;54.816;9.482;2023-01-23T15:05:22;8.27;;;4.00;;
69956;SDS011;57283;54.816;9.482;2023-01-23T15:07:54;10.07;;;4.72;;
69956;SDS011;57283;54.816;9.482;2023-01-23T15:10:23;14.50;;;5.00;;
69956;SDS011;57283;54.816;9.482;2023-01-23T15:12:53;10.93;;;4.43;;
69956;SDS011;57283;54.816;9.482;2023-01-23T15:15:21;7.95;;;3.97;;
69956;SDS011;57283;54.816;9.482;2023-01-23T15:17:50;7.72;;;3.15;;
69956;SDS011;57283;54.816;9.482;2023-01-23T15:20:28;6.38;;;3.20;;
69956;SDS011;57283;54.816;9.482;2023-01-23T15:23:11;8.98;;;3.40;;
69956;SDS011;57283;54.816;9.482;2023-01-23T15:25:39;8.18;;;3.30;;
69956;SDS011;57283;54.816;9.482;2023-01-23T15:30:49;10.23;;;3.83;;
69956;SDS011;57283;54.816;9.482;2023-01-23T15:33:23;9.02;;;3.92;;
69956;SDS011;57283;54.816;9.482;2023-01-23T15:35:52;9.00;;;3.90;;
69956;SDS011;57283;54.816;9.482;2023-01-23T15:38:28;8.40;;;4.32;;
69956;SDS011;57283;54.816;9.482;2023-01-23T15:40:56;10.02;;;4.40;;